createdAt,value
2023-02-17T00:01:33.376Z,98.57
2023-02-17T00:04:00.920Z,98.35
2023-02-17T00:06:30.317Z,98.16
2023-02-17T00:08:58.132Z,98.52
2023-02-17T00:11:25.807Z,99.01
2023-02-17T00:13:55.259Z,98.62
2023-02-17T00:16:25.194Z,99.07
2023-02-17T00:19:00.644Z,99.12
2023-02-17T00:21:32.817Z,99.04
2023-02-17T00:24:00.244Z,99.04
2023-02-17T00:26:27.502Z,99.17
2023-02-17T00:28:54.818Z,99.15
2023-02-17T00:31:23.315Z,99.42
2023-02-17T00:33:54.641Z,99.24
2023-02-17T00:36:21.746Z,99.11
2023-02-17T00:38:49.583Z,99.01
2023-02-17T00:41:19.908Z,98.83
2023-02-17T00:43:48.039Z,98.96
2023-02-17T00:46:17.151Z,99.36
2023-02-17T00:48:45.639Z,99.41
2023-02-17T00:51:12.886Z,99.51
2023-02-17T00:53:40.028Z,99.77
2023-02-17T00:56:07.809Z,100.00
2023-02-17T00:58:35.833Z,99.88
2023-02-17T01:01:03.378Z,99.95
2023-02-17T01:03:31.314Z,100.00
2023-02-17T01:05:58.462Z,99.81
2023-02-17T01:08:26.051Z,99.88
2023-02-17T01:10:53.693Z,98.93
2023-02-17T01:13:23.423Z,99.21
2023-02-17T01:15:52.800Z,98.90
2023-02-17T01:18:23.975Z,98.90
2023-02-17T01:20:51.604Z,99.68
2023-02-17T01:23:18.483Z,100.00
2023-02-17T01:25:47.095Z,100.00
2023-02-17T01:28:19.739Z,100.00
2023-02-17T01:30:47.406Z,100.00
2023-02-17T01:33:14.409Z,100.00
2023-02-17T01:35:41.787Z,100.00
2023-02-17T01:38:08.525Z,100.00
2023-02-17T01:40:35.366Z,100.00
2023-02-17T01:43:02.148Z,100.00
2023-02-17T01:45:37.185Z,100.00
2023-02-17T01:48:14.540Z,100.00
2023-02-17T01:50:49.206Z,100.00
2023-02-17T01:53:22.032Z,100.00
2023-02-17T01:55:49.944Z,100.00
2023-02-17T01:58:20.135Z,100.00
2023-02-17T02:00:49.799Z,100.00
2023-02-17T02:03:19.899Z,100.00
2023-02-17T02:05:47.413Z,100.00
2023-02-17T02:08:15.276Z,100.00
2023-02-17T02:10:42.222Z,100.00
2023-02-17T02:13:09.503Z,100.00
2023-02-17T02:15:43.412Z,100.00
2023-02-17T02:18:35.266Z,100.00
2023-02-17T02:21:08.077Z,100.00
2023-02-17T02:24:00.339Z,100.00
2023-02-17T02:26:45.499Z,100.00
2023-02-17T02:29:42.982Z,100.00
2023-02-17T02:32:40.381Z,100.00
2023-02-17T02:35:34.727Z,100.00
2023-02-17T02:38:30.410Z,100.00
2023-02-17T02:41:05.198Z,100.00
2023-02-17T02:43:32.677Z,100.00
2023-02-17T02:45:59.537Z,100.00
2023-02-17T02:48:27.562Z,100.00
2023-02-17T02:51:12.595Z,100.00
2023-02-17T02:54:05.764Z,100.00
2023-02-17T02:56:52.692Z,100.00
2023-02-17T02:59:42.823Z,100.00
2023-02-17T03:02:29.965Z,100.00
2023-02-17T03:05:09.480Z,100.00
2023-02-17T03:08:05.799Z,100.00
2023-02-17T03:10:32.823Z,100.00
2023-02-17T03:13:02.207Z,100.00
2023-02-17T03:15:33.742Z,100.00
2023-02-17T03:18:02.757Z,100.00
2023-02-17T03:20:34.793Z,100.00
2023-02-17T03:23:03.400Z,100.00
2023-02-17T03:25:30.411Z,100.00
2023-02-17T03:27:57.499Z,100.00
2023-02-17T03:30:24.982Z,100.00
2023-02-17T03:32:52.102Z,100.00
2023-02-17T03:35:20.681Z,100.00
2023-02-17T03:37:48.254Z,100.00
2023-02-17T03:40:15.118Z,100.00
2023-02-17T03:42:42.182Z,100.00
2023-02-17T03:45:09.445Z,100.00
2023-02-17T03:47:36.586Z,100.00
2023-02-17T03:50:03.866Z,100.00
2023-02-17T03:52:30.800Z,100.00
2023-02-17T03:54:57.564Z,100.00
2023-02-17T03:57:24.445Z,100.00
2023-02-17T03:59:51.233Z,100.00
2023-02-17T04:02:18.041Z,100.00
2023-02-17T04:04:44.958Z,100.00
2023-02-17T04:07:11.976Z,100.00
2023-02-17T04:09:38.741Z,100.00
2023-02-17T04:12:05.885Z,100.00
2023-02-17T04:14:32.711Z,100.00
2023-02-17T04:16:59.672Z,100.00
2023-02-17T04:19:26.532Z,100.00
2023-02-17T04:21:53.547Z,100.00
2023-02-17T04:24:20.320Z,100.00
2023-02-17T04:26:47.276Z,99.89
2023-02-17T04:29:14.260Z,99.92
2023-02-17T04:31:41.239Z,99.76
2023-02-17T04:34:08.168Z,99.30
2023-02-17T04:36:35.438Z,98.72
2023-02-17T04:39:02.293Z,98.69
2023-02-17T04:41:29.154Z,98.88
2023-02-17T04:43:56.085Z,99.44
2023-02-17T04:46:23.320Z,99.49
2023-02-17T04:48:50.079Z,99.05
2023-02-17T04:51:17.132Z,98.33
2023-02-17T04:53:43.975Z,98.24
2023-02-17T04:56:11.188Z,98.40
2023-02-17T04:58:38.028Z,98.67
2023-02-17T05:01:05.204Z,98.73
2023-02-17T05:03:32.158Z,98.61
2023-02-17T05:05:59.059Z,98.90
2023-02-17T05:08:25.934Z,98.97
2023-02-17T05:10:53.323Z,98.90
2023-02-17T05:13:20.424Z,98.98
2023-02-17T05:15:47.662Z,99.20
2023-02-17T05:18:14.534Z,99.09
2023-02-17T05:20:42.227Z,99.05
2023-02-17T05:23:09.014Z,98.95
2023-02-17T05:25:35.864Z,98.68
2023-02-17T05:28:02.776Z,98.91
2023-02-17T05:30:29.730Z,99.06
2023-02-17T05:32:56.684Z,99.48
2023-02-17T05:35:24.802Z,99.16
2023-02-17T05:37:51.574Z,99.20
2023-02-17T05:40:18.691Z,99.50
2023-02-17T05:42:45.572Z,99.67
2023-02-17T05:45:12.714Z,99.84
2023-02-17T05:47:39.509Z,99.75
2023-02-17T05:50:07.129Z,99.54
2023-02-17T05:52:34.080Z,100.00
2023-02-17T05:55:01.109Z,99.83
2023-02-17T05:57:27.905Z,99.97
2023-02-17T05:59:55.024Z,99.46
2023-02-17T06:02:22.029Z,99.69
2023-02-17T06:04:49.090Z,99.45
2023-02-17T06:07:16.029Z,99.58
2023-02-17T06:09:43.178Z,99.29
2023-02-17T06:12:10.016Z,99.55
2023-02-17T06:14:36.998Z,99.51
2023-02-17T06:17:04.136Z,99.28
2023-02-17T06:19:31.465Z,98.87
2023-02-17T06:21:58.280Z,98.59
2023-02-17T06:24:25.634Z,96.78
2023-02-17T06:26:52.563Z,95.97
2023-02-17T06:29:19.535Z,95.64
2023-02-17T06:31:49.663Z,95.45
2023-02-17T06:34:16.706Z,95.63
2023-02-17T06:36:43.543Z,95.38
2023-02-17T06:39:10.577Z,95.21
2023-02-17T06:41:37.529Z,94.77
2023-02-17T06:44:04.878Z,94.36
2023-02-17T06:46:31.856Z,92.46
2023-02-17T06:49:00.159Z,91.73
2023-02-17T06:51:27.886Z,91.34
2023-02-17T06:53:55.633Z,90.77
2023-02-17T06:56:22.634Z,90.26
2023-02-17T06:58:49.581Z,89.51
2023-02-17T07:01:18.416Z,89.41
2023-02-17T07:03:45.655Z,89.19
2023-02-17T07:06:12.591Z,88.73
2023-02-17T07:08:39.441Z,88.25
2023-02-17T07:11:11.818Z,87.78
2023-02-17T07:13:38.878Z,86.66
2023-02-17T07:16:06.506Z,85.87
2023-02-17T07:18:33.977Z,84.17
2023-02-17T07:21:01.043Z,82.18
2023-02-17T07:23:27.910Z,81.23
2023-02-17T07:25:54.698Z,80.30
2023-02-17T07:28:21.607Z,78.67
2023-02-17T07:30:48.519Z,78.65
2023-02-17T07:33:15.472Z,76.82
2023-02-17T07:35:46.096Z,76.17
2023-02-17T07:38:13.553Z,75.43
2023-02-17T07:40:40.503Z,75.21
2023-02-17T07:43:07.431Z,73.42
2023-02-17T07:45:34.725Z,73.12
2023-02-17T07:48:01.651Z,73.20
2023-02-17T07:50:28.704Z,73.59
2023-02-17T07:52:55.758Z,72.92
2023-02-17T07:55:22.652Z,73.07
2023-02-17T07:57:49.817Z,73.25
2023-02-17T08:00:17.394Z,72.01
2023-02-17T08:02:44.498Z,72.26
2023-02-17T08:05:11.767Z,72.24
2023-02-17T08:07:38.724Z,72.47
2023-02-17T08:10:24.905Z,72.41
2023-02-17T08:13:10.408Z,71.91
2023-02-17T08:15:37.653Z,71.28
2023-02-17T08:18:06.516Z,71.35
2023-02-17T08:20:35.209Z,71.17
2023-02-17T08:23:03.721Z,71.65
2023-02-17T08:25:35.670Z,70.52
2023-02-17T08:28:04.953Z,69.39
2023-02-17T08:30:32.172Z,70.21
2023-02-17T08:32:59.869Z,68.34
2023-02-17T08:35:28.235Z,68.70
2023-02-17T08:37:55.581Z,68.35
2023-02-17T08:40:23.010Z,66.86
2023-02-17T08:42:50.042Z,66.40
2023-02-17T08:45:17.307Z,66.99
2023-02-17T08:47:44.177Z,66.57
2023-02-17T08:50:16.426Z,65.85
2023-02-17T08:52:43.286Z,65.82
2023-02-17T08:55:10.595Z,65.69
2023-02-17T08:57:37.492Z,64.89
2023-02-17T09:00:08.639Z,65.63
2023-02-17T09:02:37.604Z,65.73
2023-02-17T09:05:06.087Z,65.38
2023-02-17T09:07:32.990Z,65.14
2023-02-17T09:10:01.025Z,64.39
2023-02-17T09:12:27.886Z,65.15
2023-02-17T09:14:54.990Z,64.87
2023-02-17T09:17:21.980Z,65.09
2023-02-17T09:19:49.026Z,63.74
2023-02-17T09:22:30.833Z,63.43
2023-02-17T09:24:58.688Z,63.56
2023-02-17T09:27:25.716Z,63.27
2023-02-17T09:29:52.665Z,63.15
2023-02-17T09:32:20.463Z,63.18
2023-02-17T09:34:53.320Z,62.30
2023-02-17T09:37:21.984Z,61.72
2023-02-17T09:39:49.139Z,62.66
2023-02-17T09:42:25.700Z,61.65
2023-02-17T09:45:18.452Z,61.09
2023-02-17T09:47:50.781Z,61.86
2023-02-17T09:50:21.871Z,62.73
2023-02-17T09:53:33.716Z,62.11
2023-02-17T09:56:03.094Z,61.61
2023-02-17T09:58:30.034Z,60.88
2023-02-17T10:01:00.636Z,60.80
2023-02-17T10:03:37.689Z,60.68
2023-02-17T10:06:13.994Z,59.25
2023-02-17T10:09:13.019Z,59.96
2023-02-17T10:11:44.219Z,60.69
2023-02-17T10:14:33.110Z,59.78
2023-02-17T10:17:17.668Z,58.13
2023-02-17T10:19:54.905Z,57.99
2023-02-17T10:22:24.445Z,57.08
2023-02-17T10:24:51.684Z,57.28
2023-02-17T10:27:35.732Z,58.01
2023-02-17T10:30:20.310Z,56.86
2023-02-17T10:33:15.245Z,56.30
2023-02-17T10:35:56.148Z,57.02
2023-02-17T10:39:07.743Z,56.21
2023-02-17T10:41:38.212Z,56.82
2023-02-17T10:44:15.386Z,55.95
2023-02-17T10:46:43.516Z,54.59
2023-02-17T10:49:31.469Z,54.07
2023-02-17T10:52:06.349Z,52.74
2023-02-17T10:54:38.656Z,54.40
2023-02-17T10:57:11.249Z,54.80
2023-02-17T10:59:44.332Z,55.48
2023-02-17T11:02:33.487Z,54.55
2023-02-17T11:05:00.572Z,53.64
2023-02-17T11:07:34.848Z,54.03
2023-02-17T11:10:04.821Z,54.02
2023-02-17T11:12:41.521Z,53.27
2023-02-17T11:15:20.651Z,53.62
2023-02-17T11:17:48.091Z,53.25
2023-02-17T11:20:15.301Z,53.21
2023-02-17T11:22:45.882Z,54.32
2023-02-17T11:25:26.476Z,52.78
2023-02-17T11:27:56.650Z,52.81
2023-02-17T11:30:24.962Z,50.67
2023-02-17T11:32:52.079Z,51.11
2023-02-17T11:35:32.894Z,51.00
2023-02-17T11:38:10.542Z,51.13
2023-02-17T11:40:37.677Z,51.14
2023-02-17T11:43:06.062Z,49.84
2023-02-17T11:45:43.021Z,49.71
2023-02-17T11:48:40.042Z,49.72
2023-02-17T11:51:40.700Z,47.98
2023-02-17T11:54:19.212Z,48.73
2023-02-17T11:57:30.779Z,48.94
2023-02-17T12:00:19.107Z,48.98
2023-02-17T12:03:09.914Z,48.57
2023-02-17T12:06:18.509Z,48.75
2023-02-17T12:08:57.474Z,50.22
2023-02-17T12:11:37.550Z,51.24
2023-02-17T12:14:42.019Z,49.31
2023-02-17T12:17:37.975Z,50.05
2023-02-17T12:20:28.136Z,50.61
2023-02-17T12:23:10.568Z,50.19
2023-02-17T12:25:48.863Z,50.91
2023-02-17T12:28:24.776Z,51.43
2023-02-17T12:31:13.494Z,53.13
2023-02-17T12:34:20.185Z,53.78
2023-02-17T12:36:50.446Z,54.41
2023-02-17T12:39:43.078Z,52.48
2023-02-17T12:42:25.075Z,51.95
2023-02-17T12:45:03.553Z,50.71
2023-02-17T12:47:53.741Z,51.09
2023-02-17T12:51:03.157Z,50.46
2023-02-17T12:53:48.142Z,49.54
2023-02-17T12:56:28.482Z,48.27
2023-02-17T12:58:59.352Z,47.67
2023-02-17T13:01:31.394Z,46.34
2023-02-17T13:04:02.704Z,47.25
2023-02-17T13:06:29.554Z,44.93
2023-02-17T13:09:01.796Z,45.26
2023-02-17T13:11:34.987Z,45.11
2023-02-17T13:14:29.360Z,44.56
2023-02-17T13:16:56.202Z,45.42
2023-02-17T13:19:31.801Z,46.06
2023-02-17T13:22:02.368Z,46.35
2023-02-17T13:24:50.841Z,46.23
2023-02-17T13:27:22.582Z,46.31
2023-02-17T13:30:22.015Z,46.53
2023-02-17T13:33:04.296Z,46.86
2023-02-17T13:35:34.929Z,47.40
2023-02-17T13:38:01.775Z,48.24
2023-02-17T13:40:41.229Z,48.18
2023-02-17T13:43:14.988Z,48.45
2023-02-17T13:46:15.683Z,48.53
2023-02-17T13:48:42.632Z,48.22
2023-02-17T13:51:25.649Z,47.71
2023-02-17T13:53:53.882Z,48.28
2023-02-17T13:56:31.139Z,48.83
2023-02-17T13:59:18.037Z,49.42
2023-02-17T14:01:46.583Z,48.85
2023-02-17T14:04:22.505Z,48.71
2023-02-17T14:06:50.132Z,48.74
2023-02-17T14:09:30.720Z,48.62
2023-02-17T14:11:59.092Z,47.99
2023-02-17T14:14:35.050Z,48.60
2023-02-17T14:17:05.158Z,48.89
2023-02-17T14:19:47.335Z,48.94
2023-02-17T14:22:35.328Z,46.40
2023-02-17T14:25:13.109Z,47.66
2023-02-17T14:27:45.091Z,49.31
2023-02-17T14:30:36.135Z,50.34
2023-02-17T14:33:20.076Z,51.53
2023-02-17T14:36:02.939Z,52.47
2023-02-17T14:38:35.296Z,52.77
2023-02-17T14:41:02.266Z,53.27
2023-02-17T14:43:29.881Z,53.79
2023-02-17T14:45:56.745Z,53.35
2023-02-17T14:48:27.383Z,53.45
2023-02-17T14:50:57.277Z,53.70
2023-02-17T14:53:32.961Z,53.65
2023-02-17T14:56:26.625Z,53.53
2023-02-17T14:58:54.046Z,53.35
2023-02-17T15:01:23.533Z,54.11
2023-02-17T15:03:50.597Z,53.91
2023-02-17T15:06:20.989Z,54.06
2023-02-17T15:08:51.649Z,53.81
2023-02-17T15:11:30.429Z,54.16
2023-02-17T15:13:57.792Z,53.91
2023-02-17T15:16:24.757Z,54.13
2023-02-17T15:18:51.792Z,54.40
2023-02-17T15:21:24.340Z,55.40
2023-02-17T15:23:51.626Z,56.18
2023-02-17T15:26:21.538Z,56.39
2023-02-17T15:28:48.598Z,57.08
2023-02-17T15:31:16.769Z,57.33
2023-02-17T15:33:47.645Z,57.65
2023-02-17T15:36:17.725Z,57.66
2023-02-17T15:38:44.479Z,57.39
2023-02-17T15:41:18.452Z,58.04
2023-02-17T15:43:46.974Z,58.56
2023-02-17T15:46:16.844Z,59.38
2023-02-17T15:48:52.303Z,59.71
2023-02-17T15:51:22.546Z,60.27
2023-02-17T15:53:49.565Z,60.77
2023-02-17T15:56:20.613Z,61.16
2023-02-17T15:58:49.054Z,61.55
2023-02-17T16:01:34.715Z,61.95
2023-02-17T16:04:01.810Z,62.63
2023-02-17T16:06:29.535Z,63.20
2023-02-17T16:08:58.812Z,63.25
2023-02-17T16:11:32.713Z,63.55
2023-02-17T16:14:01.230Z,64.11
2023-02-17T16:16:36.162Z,64.51
2023-02-17T16:19:08.829Z,65.43
2023-02-17T16:21:35.913Z,65.60
2023-02-17T16:24:02.678Z,66.26
2023-02-17T16:26:34.493Z,65.93
2023-02-17T16:29:02.973Z,66.06
2023-02-17T16:31:32.592Z,66.02
2023-02-17T16:34:00.546Z,66.47
2023-02-17T16:36:32.542Z,66.76
2023-02-17T16:39:02.708Z,67.14
2023-02-17T16:41:29.640Z,67.54
2023-02-17T16:43:56.478Z,67.84
2023-02-17T16:46:29.768Z,68.14
2023-02-17T16:48:58.019Z,68.92
2023-02-17T16:51:25.142Z,68.96
2023-02-17T16:53:52.590Z,69.68
2023-02-17T16:56:34.666Z,70.22
2023-02-17T16:59:01.633Z,70.45
2023-02-17T17:01:28.590Z,70.64
2023-02-17T17:03:55.490Z,71.50
2023-02-17T17:06:25.922Z,71.79
2023-02-17T17:08:53.667Z,72.40
2023-02-17T17:11:23.834Z,72.77
2023-02-17T17:13:50.838Z,72.85
2023-02-17T17:16:24.863Z,73.20
2023-02-17T17:18:51.813Z,73.36
2023-02-17T17:21:19.596Z,74.19
2023-02-17T17:23:47.548Z,74.78
2023-02-17T17:26:18.897Z,74.91
2023-02-17T17:28:48.317Z,75.46
2023-02-17T17:31:15.430Z,75.64
2023-02-17T17:33:42.513Z,75.91
2023-02-17T17:36:24.405Z,76.24
2023-02-17T17:38:53.454Z,77.00
2023-02-17T17:41:20.875Z,77.19
2023-02-17T17:43:49.026Z,77.84
2023-02-17T17:46:19.320Z,77.75
2023-02-17T17:48:47.410Z,78.35
2023-02-17T17:51:17.422Z,78.76
2023-02-17T17:53:44.687Z,79.01
2023-02-17T17:56:23.815Z,78.90
2023-02-17T17:58:51.290Z,78.76
2023-02-17T18:01:20.343Z,78.75
2023-02-17T18:03:48.387Z,78.96
2023-02-17T18:06:21.635Z,79.69
2023-02-17T18:08:50.532Z,79.94
2023-02-17T18:11:19.895Z,80.59
2023-02-17T18:13:49.814Z,80.98
2023-02-17T18:16:17.139Z,81.26
2023-02-17T18:18:44.069Z,81.68
2023-02-17T18:21:11.067Z,82.19
2023-02-17T18:23:38.057Z,82.09
2023-02-17T18:26:05.302Z,81.98
2023-02-17T18:28:33.892Z,82.43
2023-02-17T18:31:07.730Z,82.54
2023-02-17T18:33:34.699Z,82.90
2023-02-17T18:36:23.223Z,83.11
2023-02-17T18:38:50.617Z,83.59
2023-02-17T18:41:19.267Z,84.18
2023-02-17T18:43:46.470Z,85.16
2023-02-17T18:46:13.597Z,85.13
2023-02-17T18:48:40.432Z,85.03
2023-02-17T18:51:13.331Z,85.44
2023-02-17T18:53:41.288Z,85.78
2023-02-17T18:56:20.110Z,85.85
2023-02-17T18:58:48.281Z,86.06
2023-02-17T19:01:22.435Z,86.42
2023-02-17T19:03:49.490Z,86.29
2023-02-17T19:06:20.457Z,86.51
2023-02-17T19:08:47.990Z,86.96
2023-02-17T19:11:18.003Z,87.30
2023-02-17T19:13:45.258Z,87.38
2023-02-17T19:16:15.273Z,87.24
2023-02-17T19:18:43.570Z,87.41
2023-02-17T19:21:11.023Z,87.94
2023-02-17T19:23:38.910Z,88.26
2023-02-17T19:26:08.001Z,88.30
2023-02-17T19:28:36.680Z,88.24
2023-02-17T19:31:09.472Z,88.28
2023-02-17T19:33:37.082Z,88.09
2023-02-17T19:36:09.074Z,88.39
2023-02-17T19:38:37.085Z,88.57
2023-02-17T19:41:05.648Z,88.23
2023-02-17T19:43:32.740Z,87.67
2023-02-17T19:45:59.720Z,87.60
2023-02-17T19:48:26.772Z,87.95
2023-02-17T19:51:00.719Z,87.70
2023-02-17T19:53:27.971Z,87.68
2023-02-17T19:55:54.777Z,87.33
2023-02-17T19:58:21.608Z,87.19
2023-02-17T20:00:48.433Z,86.84
2023-02-17T20:03:15.236Z,86.93
2023-02-17T20:05:42.655Z,87.00
2023-02-17T20:08:09.516Z,86.81
2023-02-17T20:10:39.446Z,86.78
2023-02-17T20:13:06.671Z,86.30
2023-02-17T20:15:33.560Z,85.47
2023-02-17T20:18:00.424Z,85.19
2023-02-17T20:20:27.275Z,84.77
2023-02-17T20:22:54.079Z,84.95
2023-02-17T20:25:21.019Z,83.60
2023-02-17T20:27:47.844Z,83.47
2023-02-17T20:30:15.049Z,83.75
2023-02-17T20:32:41.890Z,83.62
2023-02-17T20:35:11.174Z,83.52
2023-02-17T20:37:38.086Z,83.37
2023-02-17T20:40:05.462Z,83.51
2023-02-17T20:42:32.494Z,83.07
2023-02-17T20:44:59.326Z,82.47
2023-02-17T20:47:26.117Z,82.45
2023-02-17T20:49:53.021Z,81.83
2023-02-17T20:52:19.818Z,82.25
2023-02-17T20:54:46.616Z,82.53
2023-02-17T20:57:15.677Z,82.48
2023-02-17T20:59:42.814Z,82.86
2023-02-17T21:02:11.171Z,83.05
2023-02-17T21:04:38.064Z,83.62
2023-02-17T21:07:04.917Z,83.69
2023-02-17T21:09:32.002Z,83.54
2023-02-17T21:11:58.878Z,83.41
2023-02-17T21:14:25.662Z,82.85
2023-02-17T21:16:52.566Z,82.45
2023-02-17T21:19:19.607Z,82.24
2023-02-17T21:21:46.800Z,82.36
2023-02-17T21:24:14.003Z,81.82
2023-02-17T21:26:41.162Z,81.98
2023-02-17T21:29:08.451Z,81.77
2023-02-17T21:31:37.089Z,81.83
2023-02-17T21:34:04.851Z,82.51
2023-02-17T21:36:31.676Z,82.88
2023-02-17T21:38:59.124Z,82.72
2023-02-17T21:41:27.806Z,83.41
2023-02-17T21:44:13.657Z,83.80
2023-02-17T21:46:43.902Z,83.95
2023-02-17T21:49:11.660Z,84.33
2023-02-17T21:51:39.834Z,84.67
2023-02-17T21:54:07.278Z,85.18
2023-02-17T21:56:34.305Z,85.30
2023-02-17T21:59:01.059Z,85.44
2023-02-17T22:01:28.664Z,85.67
2023-02-17T22:03:57.657Z,85.86
2023-02-17T22:06:27.781Z,86.02
2023-02-17T22:08:55.288Z,86.38
2023-02-17T22:11:26.762Z,86.71
2023-02-17T22:14:01.465Z,86.52
2023-02-17T22:16:33.836Z,86.86
2023-02-17T22:19:01.441Z,87.30
2023-02-17T22:21:28.980Z,87.36
2023-02-17T22:23:57.924Z,87.40
2023-02-17T22:26:26.092Z,87.84
2023-02-17T22:28:54.285Z,88.12
2023-02-17T22:31:24.927Z,87.66
2023-02-17T22:33:51.861Z,87.72
2023-02-17T22:36:25.194Z,87.79
2023-02-17T22:38:52.637Z,88.17
2023-02-17T22:41:23.041Z,88.26
2023-02-17T22:43:50.847Z,87.88
2023-02-17T22:46:19.981Z,88.04
2023-02-17T22:48:49.134Z,87.45
2023-02-17T22:51:19.495Z,87.15
2023-02-17T22:53:46.751Z,87.19
2023-02-17T22:56:13.969Z,86.72
2023-02-17T22:58:40.975Z,86.83
2023-02-17T23:01:12.698Z,86.40
2023-02-17T23:03:39.997Z,86.31
2023-02-17T23:06:10.469Z,86.22
2023-02-17T23:08:37.750Z,86.09
2023-02-17T23:11:06.389Z,85.76
2023-02-17T23:13:33.506Z,85.40
2023-02-17T23:16:00.354Z,85.40
2023-02-17T23:18:30.983Z,85.33
2023-02-17T23:20:57.989Z,85.10
2023-02-17T23:23:24.899Z,85.37
2023-02-17T23:25:54.454Z,85.23
2023-02-17T23:28:23.674Z,84.80
2023-02-17T23:30:50.672Z,84.08
2023-02-17T23:33:19.842Z,83.17
2023-02-17T23:35:47.782Z,83.55
2023-02-17T23:38:17.374Z,83.75
2023-02-17T23:40:51.169Z,83.52
2023-02-17T23:43:19.559Z,83.66
2023-02-17T23:45:46.577Z,83.45
2023-02-17T23:48:13.609Z,83.29
2023-02-17T23:50:40.865Z,83.29
2023-02-17T23:53:08.686Z,82.95
2023-02-17T23:55:35.643Z,83.21
2023-02-17T23:58:02.507Z,82.63
